Time;durP1;ratioP1;P1;durP2;ratioP2;P2;SDS_P1;SDS_P2;PMS_P1;PMS_P2;Temp;Humidity;BMP_temperature;BMP_pressure;BME280_temperature;BME280_humidity;BME280_pressure;Samples;Min_cycle;Max_cycle;Signal;HPM_P1;HPM_P2
2022/12/21 00:01:10;;;;;;;11.40;6.78;;;;;;;-140.72;100.00;53279.72;6218989;23;20027;-71
2022/12/21 00:03:36;;;;;;;13.65;7.43;;;;;;;-140.72;100.00;53281.75;6246513;23;20000;-71
2022/12/21 00:06:01;;;;;;;13.82;7.00;;;;;;;-140.72;100.00;53239.13;6219069;23;20004;-71
2022/12/21 00:08:27;;;;;;;10.70;6.75;;;;;;;-140.72;100.00;53304.06;6218343;23;20015;-72
2022/12/21 00:10:58;;;;;;;13.25;6.68;;;;;;;-140.72;100.00;53243.19;6245235;22;20087;-71
2022/12/21 00:13:23;;;;;;;11.95;6.80;;;;;;;-140.72;100.00;53243.19;6218142;23;20455;-71
2022/12/21 00:15:56;;;;;;;18.55;6.68;;;;;;;-140.72;100.00;53302.03;6246339;23;20031;-71
2022/12/21 00:18:22;;;;;;;15.10;7.35;;;;;;;-140.72;100.00;53306.09;6218992;23;20027;-71
2022/12/21 00:21:00;;;;;;;11.07;6.13;;;;;;;-140.72;100.00;53255.34;6245219;23;20000;-71
2022/12/21 00:23:25;;;;;;;11.40;7.00;;;;;;;-140.72;100.00;53289.88;6245549;23;20306;-72
2022/12/21 00:25:51;;;;;;;10.35;6.38;;;;;;;-140.72;100.00;53287.84;6219157;23;20041;-71
2022/12/21 00:28:16;;;;;;;13.30;6.07;;;;;;;-140.72;100.00;53261.44;6218110;23;20040;-72
2022/12/21 00:30:41;;;;;;;13.10;6.97;;;;;;;-140.72;100.00;53267.53;6217867;23;20089;-72
2022/12/21 00:33:07;;;;;;;8.35;5.13;;;;;;;-140.72;100.00;53275.66;6245099;23;20007;-72
2022/12/21 00:35:32;;;;;;;8.80;5.47;;;;;;;-140.72;100.00;53263.47;6244723;23;20000;-71
2022/12/21 00:37:57;;;;;;;14.07;6.80;;;;;;;-140.72;100.00;53320.31;6218045;23;20008;-71
2022/12/21 00:40:23;;;;;;;14.05;6.95;;;;;;;-140.72;100.00;53273.63;6246241;23;20059;-71
2022/12/21 00:42:48;;;;;;;8.52;5.65;;;;;;;-140.72;100.00;53289.88;6244818;23;20027;-71
2022/12/21 00:45:13;;;;;;;10.35;7.00;;;;;;;-140.72;100.00;53316.25;6217889;23;20008;-71
2022/12/21 00:47:38;;;;;;;9.40;6.18;;;;;;;-140.72;100.00;53259.41;6217766;23;20023;-72
2022/12/21 00:50:04;;;;;;;9.48;5.53;;;;;;;-140.72;100.00;53281.75;6245167;22;20032;-71
2022/12/21 00:52:30;;;;;;;12.02;6.53;;;;;;;-140.72;100.00;53259.41;6218051;23;20004;-71
2022/12/21 00:54:55;;;;;;;9.23;5.13;;;;;;;-140.72;100.00;53267.53;6245256;23;20011;-71
2022/12/21 00:57:21;;;;;;;6.20;4.07;;;;;;;-140.72;100.00;53267.53;6217900;23;20011;-71
2022/12/21 00:59:46;;;;;;;7.60;5.45;;;;;;;-140.72;100.00;53267.53;6218219;23;20008;-72
2022/12/21 01:02:11;;;;;;;9.77;5.50;;;;;;;-140.72;100.00;53302.03;6217876;23;20008;-72
2022/12/21 01:04:37;;;;;;;5.78;3.78;;;;;;;-140.72;100.00;53312.19;6217354;23;20036;-71
2022/12/21 01:07:02;;;;;;;10.73;6.82;;;;;;;-140.72;100.00;53291.88;6243961;22;20004;-71
2022/12/21 01:09:27;;;;;;;8.45;5.55;;;;;;;-140.72;100.00;53289.88;6244974;22;20034;-71
2022/12/21 01:11:52;;;;;;;8.77;6.57;;;;;;;-140.72;100.00;53308.13;6244545;22;20079;-70
2022/12/21 01:14:18;;;;;;;12.93;6.05;;;;;;;-140.72;100.00;53265.50;6218255;23;20443;-71
2022/12/21 01:16:44;;;;;;;13.05;7.03;;;;;;;-140.72;100.00;53269.56;6218354;23;20477;-71
2022/12/21 01:19:10;;;;;;;7.68;5.32;;;;;;;-140.72;100.00;53259.41;6216437;23;20008;-71
2022/12/21 01:21:36;;;;;;;8.35;4.70;;;;;;;-140.72;100.00;53310.16;6245076;23;20298;-71
2022/12/21 01:24:02;;;;;;;11.05;5.80;;;;;;;-140.72;100.00;53308.13;6244456;23;20079;-71
2022/12/21 01:26:28;;;;;;;9.02;6.13;;;;;;;-140.72;100.00;53304.06;6218059;23;20337;-71
2022/12/21 01:28:54;;;;;;;13.90;6.25;;;;;;;-140.72;100.00;53304.06;6244804;22;20011;-72
2022/12/21 01:31:20;;;;;;;16.63;7.18;;;;;;;-140.72;100.00;53279.72;6218006;23;20008;-72
2022/12/21 01:33:45;;;;;;;8.10;5.95;;;;;;;-140.72;100.00;53304.06;6244409;22;20007;-72
2022/12/21 01:36:13;;;;;;;13.13;6.90;;;;;;;-140.72;100.00;53279.72;6244131;23;20012;-71
2022/12/21 01:38:40;;;;;;;9.85;5.90;;;;;;;-140.72;100.00;53265.50;6217138;23;20051;-72
2022/12/21 01:41:06;;;;;;;10.15;6.47;;;;;;;-140.72;100.00;53275.66;6217754;23;20023;-71
2022/12/21 01:43:45;;;;;;;10.40;6.60;;;;;;;-140.72;100.00;53263.47;6218203;23;20144;-71
2022/12/21 01:46:32;;;;;;;11.25;6.82;;;;;;;-140.72;100.00;53275.66;6217719;23;20012;-71
2022/12/21 01:49:00;;;;;;;11.13;6.15;;;;;;;-140.72;100.00;53277.69;6218336;23;20039;-71
2022/12/21 01:51:25;;;;;;;14.15;7.88;;;;;;;-140.72;100.00;53285.81;6245946;22;20027;-71
2022/12/21 01:54:26;;;;;;;13.95;7.28;;;;;;;-140.72;100.00;53316.25;6217550;23;20032;-71
2022/12/21 01:56:56;;;;;;;11.85;6.85;;;;;;;-140.72;100.00;53302.03;6179511;23;20012;-71
2022/12/21 01:59:34;;;;;;;12.15;7.28;;;;;;;-140.72;100.00;53285.81;6217944;23;20503;-71
2022/12/21 02:02:05;;;;;;;9.70;6.57;;;;;;;-140.72;100.00;53293.91;6217876;23;20008;-71
2022/12/21 02:04:30;;;;;;;10.55;6.93;;;;;;;-140.72;100.00;53293.91;6245288;23;20011;-71
2022/12/21 02:06:58;;;;;;;12.77;7.43;;;;;;;-140.72;100.00;53346.69;6219345;23;20035;-71
2022/12/21 02:09:31;;;;;;;11.60;7.35;;;;;;;-140.72;100.00;53281.75;6218377;23;20062;-71
2022/12/21 02:12:00;;;;;;;18.27;7.03;;;;;;;-140.72;100.00;53271.59;6217354;23;20047;-71
2022/12/21 02:14:29;;;;;;;10.07;6.47;;;;;;;-140.72;100.00;53295.94;6217783;23;20008;-71
2022/12/21 02:17:10;;;;;;;13.43;7.47;;;;;;;-140.72;100.00;53295.94;6244450;22;20004;-72
2022/12/21 02:19:35;;;;;;;13.73;8.05;;;;;;;-140.72;100.00;53297.97;6218893;23;20062;-71
2022/12/21 02:22:08;;;;;;;14.07;8.07;;;;;;;-140.72;100.00;53308.13;6243815;22;20436;-71
2022/12/21 02:25:09;;;;;;;12.70;8.30;;;;;;;-140.72;100.00;53295.94;6218439;23;20067;-71
2022/12/21 02:27:56;;;;;;;12.88;7.40;;;;;;;-140.72;100.00;53308.13;6192052;23;20015;-72
2022/12/21 02:30:23;;;;;;;15.73;8.48;;;;;;;-140.72;100.00;53261.44;6219224;23;20091;-71
2022/12/21 02:33:20;;;;;;;17.65;10.85;;;;;;;-140.72;100.00;53304.06;6245448;22;20000;-72
2022/12/21 02:36:25;;;;;;;15.02;9.65;;;;;;;-140.72;100.00;53277.69;6218995;23;20015;-72
2022/12/21 02:39:10;;;;;;;14.88;8.90;;;;;;;-140.72;100.00;53261.44;6245435;23;20000;-72
2022/12/21 02:41:44;;;;;;;23.02;11.20;;;;;;;-140.72;100.00;53277.69;6219269;23;20008;-72
2022/12/21 02:44:43;;;;;;;12.40;8.75;;;;;;;-140.72;100.00;53279.72;6245521;23;20040;-72
2022/12/21 02:47:14;;;;;;;19.00;9.85;;;;;;;-140.72;100.00;53247.25;6219144;23;20008;-72
2022/12/21 02:49:57;;;;;;;21.55;10.88;;;;;;;-140.72;100.00;53275.66;6219045;23;20004;-71
2022/12/21 02:52:38;;;;;;;24.95;10.25;;;;;;;-140.72;100.00;53283.78;6218698;23;20008;-72
2022/12/21 02:55:03;;;;;;;19.67;9.73;;;;;;;-140.72;100.00;53312.19;6218978;23;20004;-72
2022/12/21 02:57:35;;;;;;;20.73;10.45;;;;;;;-140.72;100.00;53265.50;6218967;23;20456;-72
2022/12/21 03:00:03;;;;;;;20.25;11.45;;;;;;;-140.72;100.00;53275.66;6218627;23;20436;-72
2022/12/21 03:02:31;;;;;;;20.48;11.55;;;;;;;-140.72;100.00;53251.31;6218583;23;20015;-71
2022/12/21 03:05:15;;;;;;;20.05;9.75;;;;;;;-140.72;100.00;53255.34;6245443;23;20054;-72
2022/12/21 03:07:59;;;;;;;17.48;9.98;;;;;;;-140.72;100.00;53304.06;6218358;23;20008;-72
2022/12/21 03:11:12;;;;;;;21.38;11.23;;;;;;;-140.72;100.00;53277.69;6218683;23;20020;-72
2022/12/21 03:13:49;;;;;;;16.40;10.18;;;;;;;-140.72;100.00;53306.09;6153177;23;20008;-72
2022/12/21 03:16:25;;;;;;;24.30;9.93;;;;;;;-140.72;100.00;53312.19;6219139;23;20087;-71
2022/12/21 03:19:06;;;;;;;21.50;11.45;;;;;;;-140.72;100.00;53269.56;6245919;23;20046;-72
2022/12/21 03:21:40;;;;;;;21.05;10.75;;;;;;;-140.72;100.00;53283.78;6219382;23;20011;-71
2022/12/21 03:24:19;;;;;;;16.80;9.10;;;;;;;-140.72;100.00;53312.19;6218870;23;20008;-71
2022/12/21 03:26:48;;;;;;;19.70;11.48;;;;;;;-140.72;100.00;53271.59;6219178;23;20038;-71
2022/12/21 03:29:18;;;;;;;13.70;9.13;;;;;;;-140.72;100.00;53300.00;6245976;23;20077;-72
2022/12/21 03:31:46;;;;;;;;;;;;;;;-140.72;100.00;53287.84;6219530;23;20012;-72
2022/12/21 03:34:29;;;;;;;23.63;9.52;;;;;;;-140.72;100.00;53271.59;6220184;23;19903;-72
2022/12/21 03:37:02;;;;;;;23.02;11.38;;;;;;;-140.72;100.00;53279.72;6246640;23;20011;-72
2022/12/21 03:39:56;;;;;;;26.15;10.45;;;;;;;-140.72;100.00;53267.53;6220338;23;20443;-72
2022/12/21 03:42:31;;;;;;;19.95;9.80;;;;;;;-140.72;100.00;53320.31;6247124;23;20004;-70
2022/12/21 03:45:37;;;;;;;19.20;9.43;;;;;;;-140.72;100.00;53293.91;6219696;23;20030;-72
2022/12/21 03:48:11;;;;;;;22.33;11.13;;;;;;;-140.72;100.00;53285.81;6246635;23;20004;-72
2022/12/21 03:50:41;;;;;;;20.13;11.48;;;;;;;-140.72;100.00;53306.09;6220306;23;20008;-73
2022/12/21 03:53:44;;;;;;;19.90;10.45;;;;;;;-140.72;100.00;53295.94;6247636;23;20004;-72
2022/12/21 03:56:16;;;;;;;20.02;10.38;;;;;;;-140.72;100.00;53293.91;6220463;23;20074;-72
2022/12/21 03:58:42;;;;;;;23.48;10.48;;;;;;;-140.72;100.00;53267.53;6247675;23;20333;-72
2022/12/21 04:01:22;;;;;;;21.40;10.07;;;;;;;-140.72;100.00;53285.81;6220502;23;20012;-72
2022/12/21 04:03:54;;;;;;;21.00;12.13;;;;;;;-140.72;100.00;53255.34;6219736;23;20050;-72
2022/12/21 04:06:23;;;;;;;19.02;11.40;;;;;;;-140.72;100.00;53302.03;6246050;23;20325;-72
2022/12/21 04:08:49;;;;;;;20.40;10.30;;;;;;;-140.72;100.00;53257.38;6246150;22;20006;-72
2022/12/21 04:12:36;;;;;;;20.63;9.77;;;;;;;-140.72;100.00;53312.19;6202386;23;20016;-71
2022/12/21 04:14:00;;;;;;;15.70;9.52;;;;;;;-140.72;100.00;53291.88;6216030;23;20009;-71
2022/12/21 04:16:26;;;;;;;25.58;9.95;;;;;;;-140.72;100.00;53235.06;6189045;23;20015;-71
2022/12/21 04:21:36;;;;;;;18.80;11.15;;;;;;;-140.72;100.00;53275.66;6215701;23;20024;-71
2022/12/21 04:29:30;;;;;;;22.33;10.93;;;;;;;-140.72;100.00;53279.72;6216137;23;20023;-72
2022/12/21 04:31:55;;;;;;;15.73;10.07;;;;;;;-140.72;100.00;53271.59;6215816;23;20084;-71
2022/12/21 04:34:20;;;;;;;18.92;11.43;;;;;;;-140.72;100.00;53259.41;6189197;23;20334;-72
2022/12/21 04:39:30;;;;;;;17.65;9.55;;;;;;;-140.72;100.00;53265.50;6215786;23;20028;-72
2022/12/21 04:41:55;;;;;;;18.00;10.02;;;;;;;-140.72;100.00;53281.75;6188799;23;20000;-72
2022/12/21 04:44:21;;;;;;;17.45;10.95;;;;;;;-140.72;100.00;53287.84;6215337;23;20004;-71
2022/12/21 04:46:46;;;;;;;27.13;10.93;;;;;;;-140.72;100.00;53281.75;6189125;23;20437;-72
2022/12/21 04:49:11;;;;;;;15.60;10.32;;;;;;;-140.72;100.00;53279.72;6188891;23;20013;-72
2022/12/21 04:51:37;;;;;;;23.60;11.57;;;;;;;-140.72;100.00;53275.66;6188824;23;20004;-72
2022/12/21 04:54:03;;;;;;;14.00;9.52;;;;;;;-140.72;100.00;53271.59;6189050;23;20011;-71
2022/12/21 04:56:28;;;;;;;18.30;9.68;;;;;;;-140.72;100.00;53277.69;6215632;23;20005;-72
2022/12/21 04:58:54;;;;;;;18.15;10.18;;;;;;;-140.72;100.00;53255.34;6188236;23;20070;-72
2022/12/21 05:01:21;;;;;;;14.52;10.52;;;;;;;-140.72;100.00;53300.00;6215825;23;20004;-72
2022/12/21 05:03:46;;;;;;;17.08;11.30;;;;;;;-140.72;100.00;53271.59;6188865;23;20056;-71
2022/12/21 05:06:13;;;;;;;15.32;10.98;;;;;;;-140.72;100.00;53304.06;6189071;23;20017;-71
2022/12/21 05:08:38;;;;;;;19.65;10.88;;;;;;;-140.72;100.00;53275.66;6215594;23;20079;-71
2022/12/21 05:11:07;;;;;;;19.60;11.57;;;;;;;-140.72;100.00;53255.34;6188742;23;20366;-71
2022/12/21 05:13:33;;;;;;;21.83;11.85;;;;;;;-140.72;100.00;53273.63;6188589;23;20009;-71
2022/12/21 05:16:05;;;;;;;17.00;11.30;;;;;;;-140.72;100.00;53279.72;6189485;23;20008;-71
2022/12/21 05:18:30;;;;;;;18.95;12.13;;;;;;;-140.72;100.00;53320.31;6215268;23;20012;-72
2022/12/21 05:20:55;;;;;;;19.15;12.50;;;;;;;-140.72;100.00;53265.50;6189049;23;20051;-71
2022/12/21 05:23:21;;;;;;;25.02;12.55;;;;;;;-140.72;100.00;53322.34;6188722;23;20430;-72
2022/12/21 05:25:46;;;;;;;18.38;11.88;;;;;;;-140.72;100.00;53265.50;6215952;23;20016;-72
2022/12/21 05:28:11;;;;;;;28.30;11.73;;;;;;;-140.72;100.00;53304.06;6216270;23;20015;-72
2022/12/21 05:30:37;;;;;;;18.15;11.80;;;;;;;-140.72;100.00;53308.13;6215666;23;20011;-72
2022/12/21 05:33:02;;;;;;;22.67;11.18;;;;;;;-140.72;100.00;53285.81;6188296;23;20026;-71
2022/12/21 05:35:27;;;;;;;19.67;11.10;;;;;;;-140.72;100.00;53263.47;6188784;23;20004;-72
2022/12/21 05:37:53;;;;;;;21.63;12.63;;;;;;;-140.72;100.00;53239.13;6188717;23;20042;-72
2022/12/21 05:40:18;;;;;;;21.58;10.90;;;;;;;-140.72;100.00;53263.47;6188953;23;20009;-72
2022/12/21 05:42:43;;;;;;;19.40;11.50;;;;;;;-140.72;100.00;53310.16;6188417;23;20019;-72
2022/12/21 05:45:09;;;;;;;18.02;12.00;;;;;;;-140.72;100.00;53271.59;6215196;23;20000;-72
2022/12/21 05:47:35;;;;;;;19.05;13.18;;;;;;;-140.72;100.00;53247.25;6189026;23;20009;-72
2022/12/21 05:50:00;;;;;;;18.02;11.30;;;;;;;-140.72;100.00;53287.84;6188748;23;20016;-73
2022/12/21 05:52:25;;;;;;;17.40;11.05;;;;;;;-140.72;100.00;53279.72;6189565;23;20016;-72
2022/12/21 05:54:51;;;;;;;24.98;13.50;;;;;;;-140.72;100.00;53308.13;6191385;23;20008;-72
2022/12/21 05:57:16;;;;;;;26.27;13.57;;;;;;;-140.72;100.00;53300.00;6191613;23;20009;-76
2022/12/21 05:59:41;;;;;;;18.80;11.65;;;;;;;-140.72;100.00;53291.88;6218337;23;20028;-72
2022/12/21 06:02:06;;;;;;;15.63;11.52;;;;;;;-140.72;100.00;53271.59;6191059;23;20013;-73
2022/12/21 06:04:32;;;;;;;29.90;12.30;;;;;;;-140.72;100.00;53308.13;6191617;23;20004;-72
2022/12/21 06:06:57;;;;;;;17.75;12.75;;;;;;;-140.72;100.00;53302.03;6191413;23;20010;-71
2022/12/21 06:09:23;;;;;;;24.25;11.68;;;;;;;-140.72;100.00;53283.78;6190489;23;20031;-74
2022/12/21 06:11:48;;;;;;;21.40;12.57;;;;;;;-140.72;100.00;53269.56;6190814;23;20020;-72
2022/12/21 06:14:13;;;;;;;36.17;12.82;;;;;;;-140.72;100.00;53304.06;6217035;23;20051;-73
2022/12/21 06:16:39;;;;;;;28.42;13.30;;;;;;;-140.72;100.00;53249.28;6190333;23;20012;-72
2022/12/21 06:19:04;;;;;;;14.85;10.52;;;;;;;-140.72;100.00;53297.97;6190281;23;20345;-73
2022/12/21 06:21:30;;;;;;;25.50;11.68;;;;;;;-140.72;100.00;53295.94;6190547;23;20001;-72
2022/12/21 06:23:55;;;;;;;18.55;12.10;;;;;;;-140.72;100.00;53300.00;6190493;23;20008;-72
2022/12/21 06:26:21;;;;;;;21.02;12.82;;;;;;;-140.72;100.00;53263.47;6216627;23;20004;-72
2022/12/21 06:28:51;;;;;;;18.08;11.10;;;;;;;-140.72;100.00;53300.00;6190110;23;20319;-77
2022/12/21 06:31:17;;;;;;;17.75;11.73;;;;;;;-140.72;100.00;53251.31;6217132;23;20083;-71
2022/12/21 06:33:43;;;;;;;17.42;11.10;;;;;;;-140.72;100.00;53277.69;6190363;23;20012;-71
2022/12/21 06:36:09;;;;;;;25.65;14.00;;;;;;;-140.72;100.00;53265.50;6189960;23;20004;-71
2022/12/21 06:38:35;;;;;;;18.40;12.23;;;;;;;-140.72;100.00;53306.09;6190354;23;20005;-73
2022/12/21 06:41:04;;;;;;;16.80;11.68;;;;;;;-140.72;100.00;53289.88;6189642;23;20009;-72
2022/12/21 06:43:31;;;;;;;24.48;12.60;;;;;;;-140.72;100.00;53293.91;6190120;23;20031;-72
2022/12/21 06:45:59;;;;;;;26.90;12.68;;;;;;;-140.72;100.00;53269.56;6190208;23;20030;-72
2022/12/21 06:48:26;;;;;;;16.38;12.85;;;;;;;-140.72;100.00;53302.03;6190488;23;20067;-72
2022/12/21 06:50:52;;;;;;;24.08;14.55;;;;;;;-140.72;100.00;53295.94;6190426;23;20426;-72
2022/12/21 06:53:18;;;;;;;18.73;12.20;;;;;;;-140.72;100.00;53295.94;6190105;23;20001;-72
2022/12/21 06:55:44;;;;;;;22.08;14.23;;;;;;;-140.72;100.00;53289.88;6190273;23;20024;-72
2022/12/21 06:58:09;;;;;;;24.00;13.75;;;;;;;-140.72;100.00;53295.94;6190391;23;20096;-72
2022/12/21 07:00:34;;;;;;;26.73;15.73;;;;;;;-140.72;100.00;53253.31;6216636;23;20005;-72
2022/12/21 07:02:59;;;;;;;25.65;14.82;;;;;;;-140.72;100.00;53235.06;6189721;23;20008;-72
2022/12/21 07:05:25;;;;;;;26.35;14.82;;;;;;;-140.72;100.00;53261.44;6215986;23;20020;-71
2022/12/21 07:07:50;;;;;;;23.73;14.25;;;;;;;-140.72;100.00;53267.53;6190192;23;20015;-71
2022/12/21 07:10:15;;;;;;;28.10;15.00;;;;;;;-140.72;100.00;53346.69;6194434;23;20024;-72
2022/12/21 07:12:44;;;;;;;22.05;14.35;;;;;;;-140.72;100.00;53281.75;6247012;23;20054;-76
2022/12/21 07:15:09;;;;;;;24.73;13.80;;;;;;;-140.72;100.00;53206.66;6221371;23;20007;-73
2022/12/21 07:17:35;;;;;;;30.85;15.30;;;;;;;-140.72;100.00;53247.25;6222884;23;20008;-73
2022/12/21 07:20:00;;;;;;;27.50;15.90;;;;;;;-140.72;100.00;53300.00;6222077;23;20068;-73
2022/12/21 07:22:26;;;;;;;21.60;16.80;;;;;;;-140.72;100.00;53300.00;6220687;23;20008;-72
2022/12/21 07:25:17;;;;;;;20.08;15.27;;;;;;;-140.72;100.00;53291.88;6220120;23;20004;-72
2022/12/21 07:27:42;;;;;;;22.25;14.73;;;;;;;-140.72;100.00;53291.88;6219299;23;20086;-72
2022/12/21 07:30:08;;;;;;;26.15;16.17;;;;;;;-140.72;100.00;53320.31;6217962;23;20040;-72
2022/12/21 07:32:34;;;;;;;26.27;17.30;;;;;;;-140.72;100.00;53291.88;6218977;23;20011;-73
2022/12/21 07:34:59;;;;;;;26.83;16.95;;;;;;;-140.72;100.00;53271.59;6218457;23;20314;-72
2022/12/21 07:37:24;;;;;;;21.00;14.07;;;;;;;-140.72;100.00;53291.88;6219574;23;20042;-75
2022/12/21 07:39:50;;;;;;;18.40;15.20;;;;;;;-140.72;100.00;53297.97;6220339;23;20027;-74
2022/12/21 07:42:15;;;;;;;27.65;16.48;;;;;;;-140.72;100.00;53253.31;6220546;23;20008;-79
2022/12/21 07:44:40;;;;;;;31.98;15.30;;;;;;;-140.72;100.00;53275.66;6220561;23;20004;-73
2022/12/21 07:47:06;;;;;;;18.95;14.38;;;;;;;-140.72;100.00;53277.69;6247777;22;20008;-73
2022/12/21 07:49:31;;;;;;;23.13;14.52;;;;;;;-140.72;100.00;53279.72;6220556;23;20034;-72
2022/12/21 07:51:57;;;;;;;25.08;14.40;;;;;;;-140.72;100.00;53291.88;6219519;23;20141;-75
2022/12/21 07:54:23;;;;;;;21.77;14.38;;;;;;;-140.72;100.00;53287.84;6220186;23;20004;-73
2022/12/21 07:56:48;;;;;;;20.13;13.45;;;;;;;-140.72;100.00;53275.66;6220142;23;20024;-74
2022/12/21 07:59:13;;;;;;;26.67;13.60;;;;;;;-140.72;100.00;53279.72;6221195;23;20012;-75
2022/12/21 08:01:39;;;;;;;17.85;12.98;;;;;;;-140.72;100.00;53279.72;6220759;23;20008;-76
2022/12/21 08:04:07;;;;;;;31.00;13.50;;;;;;;-140.72;100.00;53265.50;6247641;22;20365;-73
2022/12/21 08:06:33;;;;;;;21.55;13.38;;;;;;;-140.72;100.00;53285.81;6219747;23;20008;-72
2022/12/21 08:08:58;;;;;;;21.65;12.95;;;;;;;-140.72;100.00;53308.13;6245706;22;20461;-74
2022/12/21 08:11:23;;;;;;;23.23;13.68;;;;;;;-140.72;100.00;53291.88;6218914;23;20044;-71
2022/12/21 08:13:49;;;;;;;21.27;12.60;;;;;;;-140.72;100.00;53279.72;6219476;23;20066;-74
2022/12/21 08:16:16;;;;;;;18.73;12.48;;;;;;;-140.72;100.00;53277.69;6219181;23;20090;-72
2022/12/21 08:18:58;;;;;;;18.23;13.05;;;;;;;-140.72;100.00;53295.94;6218859;23;20062;-71
2022/12/21 08:21:31;;;;;;;18.25;13.25;;;;;;;-140.72;100.00;53196.50;6219373;23;20431;-70
2022/12/21 08:23:56;;;;;;;19.58;13.85;;;;;;;-140.72;100.00;53243.19;6219245;23;20000;-72
2022/12/21 08:26:21;;;;;;;20.95;13.73;;;;;;;-140.72;100.00;53300.00;6219134;23;20432;-71
2022/12/21 08:28:47;;;;;;;28.20;12.98;;;;;;;-140.72;100.00;53277.69;6219222;23;20008;-73
2022/12/21 08:31:15;;;;;;;16.65;11.85;;;;;;;-140.72;100.00;53228.97;6219232;23;20004;-76
2022/12/21 08:33:42;;;;;;;24.27;11.85;;;;;;;-140.72;100.00;53291.88;6219415;23;20030;-78
2022/12/21 08:36:16;;;;;;;21.02;11.52;;;;;;;-140.72;100.00;53300.00;6219078;23;20503;-71
2022/12/21 08:38:45;;;;;;;21.40;11.73;;;;;;;-140.72;100.00;53251.31;6246157;23;20015;-77
2022/12/21 08:41:11;;;;;;;14.55;10.02;;;;;;;-140.72;100.00;53269.56;6219338;23;20020;-72
2022/12/21 08:43:37;;;;;;;18.08;10.38;;;;;;;-140.72;100.00;53275.66;6245931;22;20062;-71
2022/12/21 08:46:04;;;;;;;19.90;12.25;;;;;;;-140.72;100.00;53263.47;6246032;23;20004;-72
2022/12/21 08:48:35;;;;;;;22.60;11.88;;;;;;;-140.72;100.00;53285.81;6245824;22;20008;-72
2022/12/21 08:51:01;;;;;;;18.98;12.07;;;;;;;-140.72;100.00;53279.72;6246316;23;20004;-75
2022/12/21 08:53:27;;;;;;;19.52;11.10;;;;;;;-140.72;100.00;53297.97;6245836;22;20108;-71
2022/12/21 08:55:53;;;;;;;15.60;10.77;;;;;;;-140.72;100.00;53277.69;6218751;23;20456;-72
2022/12/21 08:58:19;;;;;;;13.30;8.80;;;;;;;-140.72;100.00;53267.53;6219051;23;20007;-72
2022/12/21 09:00:45;;;;;;;23.67;10.30;;;;;;;-140.72;100.00;53247.25;6218705;23;20008;-71
2022/12/21 09:03:11;;;;;;;15.82;10.52;;;;;;;-140.72;100.00;53269.56;6218875;23;20020;-71
2022/12/21 09:05:38;;;;;;;17.20;10.38;;;;;;;-140.72;100.00;53235.06;6244327;23;20042;-71
2022/12/21 09:08:04;;;;;;;12.23;9.48;;;;;;;-140.72;100.00;53283.78;6218154;23;20027;-71
2022/12/21 09:10:32;;;;;;;16.65;10.02;;;;;;;-140.72;100.00;53251.31;6217558;23;20019;-71
2022/12/21 09:12:57;;;;;;;17.85;9.32;;;;;;;-140.72;100.00;53249.28;6218402;23;20016;-71
2022/12/21 09:15:24;;;;;;;14.75;9.95;;;;;;;-140.72;100.00;53279.72;6218365;23;20024;-71
2022/12/21 09:17:50;;;;;;;11.70;8.02;;;;;;;-140.72;100.00;53271.59;6245041;23;20004;-71
2022/12/21 09:20:17;;;;;;;14.25;9.63;;;;;;;-140.72;100.00;53267.53;6218124;23;20314;-70
2022/12/21 09:22:42;;;;;;;18.67;9.43;;;;;;;-140.72;100.00;53267.53;6218465;23;20004;-71
2022/12/21 09:25:08;;;;;;;19.40;11.20;;;;;;;-140.72;100.00;53247.25;6217970;23;20084;-71
2022/12/21 09:27:34;;;;;;;16.98;8.65;;;;;;;-140.72;100.00;53222.88;6219008;23;20111;-71
2022/12/21 09:29:59;;;;;;;10.68;8.18;;;;;;;-140.72;100.00;53275.66;6219577;23;20008;-72
2022/12/21 09:32:25;;;;;;;19.08;9.57;;;;;;;-140.72;100.00;53243.19;6247298;22;20008;-71
2022/12/21 09:34:51;;;;;;;9.40;8.25;;;;;;;-140.72;100.00;53283.78;6220033;23;20000;-71
2022/12/21 09:37:16;;;;;;;12.43;9.30;;;;;;;-140.72;100.00;53277.69;6220271;23;20015;-72
2022/12/21 09:39:42;;;;;;;20.05;10.77;;;;;;;-140.72;100.00;53287.84;6220234;23;20012;-72
2022/12/21 09:42:17;;;;;;;17.65;8.40;;;;;;;-140.72;100.00;53247.25;6246957;23;20008;-71
2022/12/21 09:45:10;;;;;;;12.07;8.73;;;;;;;-140.72;100.00;53279.72;6220122;23;20408;-71
2022/12/21 09:48:15;;;;;;;11.40;8.68;;;;;;;-140.72;100.00;53275.66;6203977;23;20031;-71
2022/12/21 09:51:10;;;;;;;14.23;9.07;;;;;;;-140.72;100.00;53302.03;6100071;23;20013;-72
2022/12/21 09:53:41;;;;;;;17.33;9.52;;;;;;;-140.72;100.00;53287.84;6236876;23;20060;-71
2022/12/21 09:56:10;;;;;;;16.17;9.52;;;;;;;-140.72;100.00;53265.50;6219840;23;20034;-72
2022/12/21 09:58:45;;;;;;;13.50;9.27;;;;;;;-140.72;100.00;53241.16;6246934;22;20417;-72
2022/12/21 10:01:29;;;;;;;18.70;10.07;;;;;;;-140.72;100.00;53287.84;6219688;23;20008;-71
2022/12/21 10:04:09;;;;;;;16.85;10.63;;;;;;;-140.72;100.00;53220.84;6219236;23;20015;-72
2022/12/21 10:06:44;;;;;;;12.63;9.40;;;;;;;-140.72;100.00;53283.78;6220075;23;20012;-71
2022/12/21 10:09:33;;;;;;;19.00;10.73;;;;;;;-140.72;100.00;53253.31;6219456;23;20038;-72
2022/12/21 10:12:21;;;;;;;18.10;10.43;;;;;;;-140.72;100.00;53226.94;6219946;23;20012;-72
2022/12/21 10:15:29;;;;;;;16.60;10.57;;;;;;;-140.72;100.00;53269.56;6164590;23;20027;-72
2022/12/21 10:18:14;;;;;;;17.75;10.73;;;;;;;-140.72;100.00;53218.81;6219998;23;20047;-72
2022/12/21 10:20:50;;;;;;;24.92;10.57;;;;;;;-140.72;100.00;53243.19;6219991;23;20050;-71
2022/12/21 10:23:28;;;;;;;19.77;11.52;;;;;;;-140.72;100.00;53247.25;6246555;23;20000;-72
2022/12/21 10:25:58;;;;;;;32.58;13.40;;;;;;;-140.72;100.00;53287.84;6219608;23;20011;-71
2022/12/21 10:29:22;;;;;;;19.95;13.65;;;;;;;-140.72;100.00;53281.75;6219115;23;20356;-70
2022/12/21 10:31:48;;;;;;;20.63;11.63;;;;;;;-140.72;100.00;53247.25;6170457;23;20004;-72
2022/12/21 10:34:18;;;;;;;21.70;14.43;;;;;;;-140.72;100.00;53269.56;6246321;22;20101;-72
2022/12/21 10:36:46;;;;;;;16.92;11.45;;;;;;;-140.72;100.00;53267.53;6219776;23;20004;-72
2022/12/21 10:39:15;;;;;;;19.25;10.95;;;;;;;-140.72;100.00;53275.66;6219017;23;20008;-72
2022/12/21 10:41:47;;;;;;;23.00;11.70;;;;;;;-140.72;100.00;53267.53;6220666;23;20004;-72
2022/12/21 10:44:14;;;;;;;23.30;10.93;;;;;;;-140.72;100.00;53247.25;6219293;23;20005;-72
2022/12/21 10:46:39;;;;;;;22.42;11.50;;;;;;;-140.72;100.00;53271.59;6246257;22;20058;-72
2022/12/21 10:49:36;;;;;;;24.33;14.38;;;;;;;-140.72;100.00;53279.72;6219769;23;20314;-72
2022/12/21 10:52:51;;;;;;;26.02;13.10;;;;;;;-140.72;100.00;53300.00;6218129;23;20421;-72
2022/12/21 10:55:19;;;;;;;21.55;11.85;;;;;;;-140.72;100.00;53275.66;6221223;23;20012;-72
2022/12/21 10:57:46;;;;;;;20.75;11.20;;;;;;;-140.72;100.00;53233.03;6246725;22;20372;-72
2022/12/21 11:00:24;;;;;;;17.30;11.73;;;;;;;-140.72;100.00;53255.34;6219219;23;20000;-72
2022/12/21 11:02:51;;;;;;;22.42;12.35;;;;;;;-140.72;100.00;53255.34;6245922;22;20000;-72
2022/12/21 11:05:29;;;;;;;22.42;11.48;;;;;;;-140.72;100.00;53253.31;6246280;22;20063;-72
2022/12/21 11:08:09;;;;;;;24.00;12.07;;;;;;;-140.72;100.00;53261.44;6219208;23;20081;-72
2022/12/21 11:10:35;;;;;;;21.75;12.45;;;;;;;-140.72;100.00;53251.31;6219009;23;20024;-72
2022/12/21 11:13:05;;;;;;;15.30;10.52;;;;;;;-140.72;100.00;53281.75;6246184;22;20000;-72
2022/12/21 11:15:30;;;;;;;;;;;;;;;-140.72;100.00;53271.59;6219425;23;20437;-72
2022/12/21 11:17:56;;;;;;;20.65;10.18;;;;;;;-140.72;100.00;53228.97;6219359;23;19908;-72
2022/12/21 11:20:23;;;;;;;19.98;12.13;;;;;;;-140.72;100.00;53247.25;6245613;23;20008;-72
2022/12/21 11:22:52;;;;;;;18.80;10.57;;;;;;;-140.72;100.00;53257.38;6219148;23;20015;-72